createdAt,value
2018-04-17T00:00:39.765Z,0.00
2018-04-17T00:01:39.957Z,0.00
2018-04-17T00:02:40.142Z,0.00
2018-04-17T00:03:40.328Z,0.00
2018-04-17T00:04:40.515Z,0.00
2018-04-17T00:05:40.702Z,0.00
2018-04-17T00:06:40.888Z,0.00
2018-04-17T00:07:41.074Z,0.00
2018-04-17T00:08:41.259Z,0.00
2018-04-17T00:09:41.448Z,0.00
2018-04-17T00:10:41.635Z,0.00
2018-04-17T00:11:41.822Z,0.00
2018-04-17T00:12:42.008Z,0.00
2018-04-17T00:13:42.195Z,0.00
2018-04-17T00:14:42.383Z,0.00
2018-04-17T00:15:42.567Z,0.00
2018-04-17T00:16:42.755Z,8.00
2018-04-17T00:17:42.940Z,8.00
2018-04-17T00:18:43.126Z,8.00
2018-04-17T00:19:43.312Z,8.00
2018-04-17T00:20:43.501Z,8.00
2018-04-17T00:21:43.688Z,8.00
2018-04-17T00:22:43.875Z,8.00
2018-04-17T00:23:44.060Z,8.00
2018-04-17T00:24:44.247Z,8.00
2018-04-17T00:25:44.436Z,0.00
2018-04-17T00:26:44.620Z,0.00
2018-04-17T00:27:44.808Z,8.00
2018-04-17T00:28:45.002Z,8.00
2018-04-17T00:29:45.183Z,8.00
2018-04-17T00:30:45.368Z,8.00
2018-04-17T00:31:45.556Z,8.00
2018-04-17T00:32:45.741Z,8.00
2018-04-17T00:33:45.930Z,8.00
2018-04-17T00:34:46.114Z,8.00
2018-04-17T00:35:46.305Z,8.00
2018-04-17T00:36:46.494Z,8.00
2018-04-17T00:37:46.671Z,8.00
2018-04-17T00:38:46.862Z,8.00
2018-04-17T00:39:47.046Z,8.00
2018-04-17T00:40:47.231Z,8.00
2018-04-17T00:41:47.419Z,8.00
2018-04-17T00:42:47.603Z,0.00
2018-04-17T00:43:47.790Z,0.00
2018-04-17T00:44:47.977Z,0.00
2018-04-17T00:45:48.165Z,0.00
2018-04-17T00:46:48.350Z,0.00
2018-04-17T00:47:48.537Z,0.00
2018-04-17T00:48:48.722Z,0.00
2018-04-17T00:49:48.909Z,0.00
2018-04-17T00:50:49.095Z,0.00
2018-04-17T00:51:49.282Z,0.00
2018-04-17T00:52:49.469Z,0.00
2018-04-17T00:53:49.656Z,0.00
2018-04-17T00:54:49.840Z,0.00
2018-04-17T00:55:50.027Z,0.00
2018-04-17T00:56:50.234Z,0.00
2018-04-17T00:57:50.401Z,0.00
2018-04-17T00:58:50.586Z,0.00
2018-04-17T00:59:50.772Z,0.00
2018-04-17T01:00:50.957Z,0.00
2018-04-17T01:01:51.150Z,0.00
2018-04-17T01:02:51.327Z,0.00
2018-04-17T01:03:51.515Z,0.00
2018-04-17T01:04:51.702Z,0.00
2018-04-17T01:05:51.887Z,0.00
2018-04-17T01:06:52.071Z,0.00
2018-04-17T01:07:52.257Z,0.00
2018-04-17T01:08:52.444Z,0.00
2018-04-17T01:09:52.630Z,0.00
2018-04-17T01:10:52.816Z,0.00
2018-04-17T01:11:53.001Z,0.00
2018-04-17T01:12:53.188Z,0.00
2018-04-17T01:13:53.375Z,0.00
2018-04-17T01:14:53.562Z,0.00
2018-04-17T01:15:53.746Z,0.00
2018-04-17T01:16:53.935Z,0.00
2018-04-17T01:17:54.126Z,0.00
2018-04-17T01:18:54.306Z,0.00
2018-04-17T01:19:54.493Z,0.00
2018-04-17T01:20:54.681Z,0.00
2018-04-17T01:21:54.867Z,0.00
2018-04-17T01:22:55.052Z,0.00
2018-04-17T01:23:55.239Z,0.00
2018-04-17T01:24:55.426Z,0.00
2018-04-17T01:25:55.612Z,0.00
2018-04-17T01:26:55.798Z,0.00
2018-04-17T01:27:55.984Z,0.00
2018-04-17T01:28:56.172Z,0.00
2018-04-17T01:29:56.363Z,0.00
2018-04-17T01:30:56.546Z,0.00
2018-04-17T01:31:56.734Z,0.00
2018-04-17T01:32:56.921Z,0.00
2018-04-17T01:33:57.110Z,0.00
2018-04-17T01:34:57.294Z,0.00
2018-04-17T01:35:57.477Z,0.00
2018-04-17T01:36:57.664Z,0.00
2018-04-17T01:37:57.850Z,0.00
2018-04-17T01:38:58.037Z,0.00
2018-04-17T01:39:58.223Z,0.00
2018-04-17T01:40:58.409Z,0.00
2018-04-17T01:41:58.594Z,0.00
2018-04-17T01:42:58.781Z,0.00
2018-04-17T01:43:58.968Z,0.00
2018-04-17T01:44:59.163Z,0.00
2018-04-17T01:45:59.342Z,0.00
2018-04-17T01:46:59.528Z,0.00
2018-04-17T01:47:59.712Z,0.00
2018-04-17T01:48:59.900Z,0.00
2018-04-17T01:50:00.087Z,0.00
2018-04-17T01:51:00.273Z,0.00
2018-04-17T01:52:00.460Z,0.00
2018-04-17T01:53:00.652Z,0.00
2018-04-17T01:54:00.837Z,0.00
2018-04-17T01:55:01.022Z,0.00
2018-04-17T01:56:01.211Z,0.00
2018-04-17T01:57:01.398Z,0.00
2018-04-17T01:58:01.580Z,0.00
2018-04-17T01:59:01.769Z,0.00
2018-04-17T02:00:01.954Z,0.00
2018-04-17T02:01:02.141Z,0.00
2018-04-17T02:02:02.329Z,0.00
2018-04-17T02:03:02.516Z,0.00
2018-04-17T02:04:02.703Z,0.00
2018-04-17T02:05:02.892Z,0.00
2018-04-17T02:06:03.074Z,0.00
2018-04-17T02:07:03.263Z,0.00
2018-04-17T02:08:03.453Z,0.00
2018-04-17T02:09:03.637Z,0.00
2018-04-17T02:10:03.824Z,0.00
2018-04-17T02:11:04.017Z,0.00
2018-04-17T02:12:04.198Z,0.00
2018-04-17T02:13:04.383Z,0.00
2018-04-17T02:14:04.569Z,0.00
2018-04-17T02:15:04.758Z,0.00
2018-04-17T02:16:04.944Z,0.00
2018-04-17T02:17:05.129Z,0.00
2018-04-17T02:18:05.321Z,0.00
2018-04-17T02:19:05.503Z,0.00
2018-04-17T02:20:05.914Z,0.00
2018-04-17T02:21:05.872Z,0.00
2018-04-17T02:22:06.066Z,0.00
2018-04-17T02:23:06.246Z,0.00
2018-04-17T02:24:06.431Z,0.00
2018-04-17T02:25:06.619Z,0.00
2018-04-17T02:26:06.805Z,0.00
2018-04-17T02:27:06.991Z,0.00
2018-04-17T02:28:07.179Z,0.00
2018-04-17T02:29:07.363Z,0.00
2018-04-17T02:30:07.549Z,0.00
2018-04-17T02:31:07.736Z,0.00
2018-04-17T02:32:07.923Z,0.00
2018-04-17T02:33:08.109Z,0.00
2018-04-17T02:34:08.296Z,0.00
2018-04-17T02:35:08.483Z,0.00
2018-04-17T02:36:08.668Z,0.00
2018-04-17T02:37:08.857Z,0.00
2018-04-17T02:38:09.043Z,0.00
2018-04-17T02:39:09.228Z,0.00
2018-04-17T02:40:09.418Z,0.00
2018-04-17T02:41:09.603Z,0.00
2018-04-17T02:42:09.789Z,0.00
2018-04-17T02:43:09.975Z,0.00
2018-04-17T02:44:10.159Z,0.00
2018-04-17T02:45:10.346Z,0.00
2018-04-17T02:46:10.535Z,0.00
2018-04-17T02:47:10.718Z,0.00
2018-04-17T02:48:10.903Z,0.00
2018-04-17T02:49:11.091Z,0.00
2018-04-17T02:50:11.277Z,0.00
2018-04-17T02:51:11.465Z,0.00
2018-04-17T02:52:11.648Z,0.00
2018-04-17T02:53:11.840Z,0.00
2018-04-17T02:54:12.019Z,0.00
2018-04-17T02:55:12.209Z,0.00
2018-04-17T02:56:12.389Z,0.00
2018-04-17T02:57:12.618Z,0.00
2018-04-17T02:58:12.752Z,0.00
2018-04-17T02:59:12.953Z,0.00
2018-04-17T03:00:13.116Z,0.00
2018-04-17T03:01:13.303Z,0.00
2018-04-17T03:02:13.490Z,0.00
2018-04-17T03:03:13.679Z,0.00
2018-04-17T03:04:13.862Z,0.00
2018-04-17T03:05:14.050Z,0.00
2018-04-17T03:06:14.235Z,0.00
2018-04-17T03:07:14.423Z,0.00
2018-04-17T03:08:14.608Z,0.00
2018-04-17T03:09:14.794Z,0.00
2018-04-17T03:10:14.981Z,0.00
2018-04-17T03:11:15.168Z,0.00
2018-04-17T03:12:15.353Z,0.00
2018-04-17T03:13:15.540Z,0.00
2018-04-17T03:14:15.726Z,0.00
2018-04-17T03:15:15.911Z,0.00
2018-04-17T03:16:16.097Z,0.00
2018-04-17T03:17:16.282Z,0.00
2018-04-17T03:18:16.468Z,0.00
2018-04-17T03:19:16.657Z,0.00
2018-04-17T03:20:16.844Z,0.00
2018-04-17T03:21:17.028Z,0.00
2018-04-17T03:22:17.216Z,0.00
2018-04-17T03:23:17.403Z,0.00
2018-04-17T03:24:17.589Z,0.00
2018-04-17T03:25:17.777Z,0.00
2018-04-17T03:26:17.966Z,0.00
2018-04-17T03:27:18.150Z,0.00
2018-04-17T03:28:18.336Z,0.00
2018-04-17T03:29:18.521Z,0.00
2018-04-17T03:30:18.709Z,0.00
2018-04-17T03:31:18.894Z,0.00
2018-04-17T03:32:19.080Z,0.00
2018-04-17T03:33:19.265Z,0.00
2018-04-17T03:34:19.450Z,0.00
2018-04-17T03:35:19.635Z,0.00
2018-04-17T03:36:19.822Z,0.00
2018-04-17T03:37:20.009Z,0.00
2018-04-17T03:38:20.194Z,0.00
2018-04-17T03:39:20.382Z,0.00
2018-04-17T03:40:20.568Z,0.00
2018-04-17T03:41:20.757Z,0.00
2018-04-17T03:42:20.939Z,0.00
2018-04-17T03:43:21.126Z,0.00
2018-04-17T03:44:21.312Z,0.00
2018-04-17T03:45:21.497Z,0.00
2018-04-17T03:46:21.682Z,0.00
2018-04-17T03:47:21.872Z,0.00
2018-04-17T03:48:22.055Z,4.00
2018-04-17T03:49:22.242Z,4.00
2018-04-17T03:50:22.427Z,4.00
2018-04-17T03:51:22.618Z,0.00
2018-04-17T03:52:22.800Z,4.00
2018-04-17T03:53:22.984Z,8.00
2018-04-17T03:54:23.174Z,4.00
2018-04-17T03:55:23.357Z,4.00
2018-04-17T03:56:23.543Z,8.00
2018-04-17T03:57:23.729Z,8.00
2018-04-17T03:58:23.917Z,12.00
2018-04-17T03:59:24.100Z,12.00
2018-04-17T04:00:24.287Z,16.00
2018-04-17T04:01:24.472Z,20.00
2018-04-17T04:02:24.658Z,24.00
2018-04-17T04:03:24.843Z,28.00
2018-04-17T04:04:25.031Z,36.00
2018-04-17T04:05:25.217Z,40.00
2018-04-17T04:06:25.403Z,48.00
2018-04-17T04:07:25.591Z,56.00
2018-04-17T04:08:25.777Z,68.00
2018-04-17T04:09:25.962Z,76.00
2018-04-17T04:10:26.148Z,88.00
2018-04-17T04:11:26.393Z,100.00
2018-04-17T04:12:26.520Z,116.00
2018-04-17T04:13:26.706Z,132.00
2018-04-17T04:14:26.892Z,152.00
2018-04-17T04:15:27.076Z,176.00
2018-04-17T04:16:27.260Z,196.00
2018-04-17T04:17:27.446Z,224.00
2018-04-17T04:18:27.631Z,248.00
2018-04-17T04:19:27.819Z,280.00
2018-04-17T04:20:28.006Z,316.00
2018-04-17T04:21:28.191Z,348.00
2018-04-17T04:22:28.376Z,384.00
2018-04-17T04:23:28.562Z,420.00
2018-04-17T04:24:28.749Z,460.00
2018-04-17T04:25:28.936Z,504.00
2018-04-17T04:26:29.123Z,548.00
2018-04-17T04:27:29.320Z,596.00
2018-04-17T04:28:29.495Z,648.00
2018-04-17T04:29:29.679Z,700.00
2018-04-17T04:30:29.864Z,756.00
2018-04-17T04:31:30.048Z,812.00
2018-04-17T04:32:30.235Z,872.00
2018-04-17T04:33:30.423Z,932.00
2018-04-17T04:34:30.608Z,996.00
2018-04-17T04:35:30.797Z,1064.00
2018-04-17T04:36:30.984Z,1132.00
2018-04-17T04:37:31.173Z,1200.00
2018-04-17T04:38:31.354Z,1276.00
2018-04-17T04:39:31.541Z,1344.00
2018-04-17T04:40:31.729Z,1420.00
2018-04-17T04:41:31.914Z,1508.00
2018-04-17T04:42:32.100Z,1592.00
2018-04-17T04:43:32.285Z,1684.00
2018-04-17T04:44:32.472Z,1792.00
2018-04-17T04:45:32.655Z,1904.00
2018-04-17T04:46:32.839Z,2024.00
2018-04-17T04:47:33.026Z,2156.00
2018-04-17T04:48:33.211Z,2300.00
2018-04-17T04:49:33.397Z,2432.00
2018-04-17T04:50:33.585Z,2572.00
2018-04-17T04:51:33.769Z,2732.00
2018-04-17T04:52:33.956Z,2916.00
2018-04-17T04:53:34.141Z,3128.00
2018-04-17T04:54:34.328Z,3340.00
2018-04-17T04:55:34.517Z,3536.00
2018-04-17T04:56:34.696Z,3704.00
2018-04-17T04:57:34.882Z,3848.00
2018-04-17T04:58:35.070Z,4008.00
2018-04-17T04:59:35.259Z,4180.00
2018-04-17T05:00:35.442Z,4332.00
2018-04-17T05:01:35.633Z,4496.00
2018-04-17T05:02:35.813Z,4724.00
2018-04-17T05:03:36.002Z,5096.00
2018-04-17T05:04:36.185Z,6176.00
2018-04-17T05:05:36.372Z,6248.00
2018-04-17T05:06:36.559Z,5832.00
2018-04-17T05:07:36.749Z,5776.00
2018-04-17T05:08:36.933Z,6108.00
2018-04-17T05:09:37.118Z,6228.00
2018-04-17T05:10:37.304Z,6480.00
2018-04-17T05:11:37.491Z,7204.00
2018-04-17T05:12:37.675Z,9236.00
2018-04-17T05:13:37.864Z,9440.00
2018-04-17T05:14:38.051Z,8904.00
2018-04-17T05:15:38.239Z,9784.00
2018-04-17T05:16:38.424Z,8188.00
2018-04-17T05:17:38.610Z,9924.00
2018-04-17T05:18:38.796Z,9440.00
2018-04-17T05:19:38.983Z,8400.00
2018-04-17T05:20:39.168Z,8288.00
2018-04-17T05:21:39.366Z,8740.00
2018-04-17T05:22:39.542Z,9036.00
2018-04-17T05:23:39.731Z,9356.00
2018-04-17T05:24:39.917Z,9628.00
2018-04-17T05:25:40.104Z,9884.00
2018-04-17T05:26:40.294Z,10176.00
2018-04-17T05:27:40.480Z,10544.00
2018-04-17T05:28:40.666Z,11004.00
2018-04-17T05:29:40.852Z,11676.00
2018-04-17T05:30:41.043Z,13488.00
2018-04-17T05:31:41.227Z,19680.00
2018-04-17T05:32:41.417Z,26208.00
2018-04-17T05:33:41.604Z,26656.00
2018-04-17T05:34:41.793Z,27104.00
2018-04-17T05:35:41.980Z,27488.00
2018-04-17T05:36:42.167Z,19520.00
2018-04-17T05:37:42.355Z,25760.00
2018-04-17T05:38:42.543Z,25504.00
2018-04-17T05:39:42.733Z,30624.00
2018-04-17T05:40:42.933Z,32352.00
2018-04-17T05:41:43.106Z,32992.00
2018-04-17T05:42:43.293Z,32000.00
2018-04-17T05:43:43.485Z,32288.00
2018-04-17T05:44:43.673Z,31616.00
2018-04-17T05:45:43.863Z,29568.00
2018-04-17T05:46:44.053Z,27392.00
2018-04-17T05:47:44.242Z,25696.00
2018-04-17T05:48:44.433Z,21664.00
2018-04-17T05:49:44.624Z,25248.00
2018-04-17T05:50:44.811Z,25856.00
2018-04-17T05:51:45.000Z,28800.00
2018-04-17T05:52:45.189Z,21152.00
2018-04-17T05:53:45.379Z,23872.00
2018-04-17T05:54:45.571Z,28512.00
2018-04-17T05:55:45.827Z,31456.00
2018-04-17T05:56:45.951Z,27360.00
2018-04-17T05:57:46.190Z,35648.00
2018-04-17T05:58:46.331Z,39296.00
2018-04-17T05:59:46.522Z,29728.00
2018-04-17T06:00:46.712Z,21280.00
2018-04-17T06:01:46.902Z,20064.00
2018-04-17T06:02:47.092Z,24224.00
2018-04-17T06:03:47.285Z,18848.00
2018-04-17T06:04:47.473Z,19168.00
2018-04-17T06:05:47.664Z,21568.00
2018-04-17T06:06:47.858Z,26208.00
2018-04-17T06:07:48.044Z,23648.00
2018-04-17T06:08:48.234Z,32512.00
2018-04-17T06:09:48.427Z,41472.00
2018-04-17T06:10:48.618Z,24192.00
2018-04-17T06:11:48.807Z,32000.00
2018-04-17T06:12:49.003Z,21248.00
2018-04-17T06:13:49.192Z,21312.00
2018-04-17T06:14:49.384Z,21856.00
2018-04-17T06:15:49.574Z,27776.00
2018-04-17T06:16:49.769Z,40160.00
2018-04-17T06:17:49.961Z,24160.00
2018-04-17T06:18:50.149Z,23936.00
2018-04-17T06:19:50.341Z,25856.00
2018-04-17T06:20:50.530Z,44416.00
2018-04-17T06:21:50.721Z,26624.00
2018-04-17T06:22:50.913Z,26752.00
2018-04-17T06:23:51.107Z,27072.00
2018-04-17T06:24:51.304Z,27808.00
2018-04-17T06:25:51.486Z,29120.00
2018-04-17T06:26:51.678Z,52480.00
2018-04-17T06:27:51.870Z,49056.00
2018-04-17T06:28:52.064Z,57312.00
2018-04-17T06:29:52.255Z,57696.00
2018-04-17T06:30:52.448Z,50944.00
2018-04-17T06:31:52.641Z,63008.00
2018-04-17T06:32:52.832Z,63776.00
2018-04-17T06:33:53.027Z,66720.00
2018-04-17T06:34:53.218Z,65408.00
2018-04-17T06:35:53.410Z,67264.00
2018-04-17T06:36:53.604Z,67456.00
2018-04-17T06:37:53.796Z,41984.00
2018-04-17T06:38:53.992Z,41664.00
2018-04-17T06:39:54.191Z,60576.00
2018-04-17T06:40:54.384Z,37024.00
2018-04-17T06:41:54.590Z,39904.00
2018-04-17T06:42:54.774Z,64896.00
2018-04-17T06:43:54.966Z,41440.00
2018-04-17T06:44:55.158Z,68160.00
2018-04-17T06:45:55.354Z,70240.00
2018-04-17T06:46:55.549Z,73472.00
2018-04-17T06:47:55.748Z,73504.00
2018-04-17T06:48:55.938Z,68160.00
2018-04-17T06:49:56.134Z,74464.00
2018-04-17T06:50:56.335Z,47840.00
2018-04-17T06:51:56.523Z,49280.00
2018-04-17T06:52:56.722Z,73984.00
2018-04-17T06:53:56.916Z,79872.00
2018-04-17T06:54:57.111Z,77472.00
2018-04-17T06:55:57.305Z,79072.00
2018-04-17T06:56:57.504Z,83040.00
2018-04-17T06:57:57.721Z,80128.00
2018-04-17T06:58:57.897Z,81824.00
2018-04-17T06:59:58.093Z,68608.00
2018-04-17T07:00:58.288Z,77120.00
2018-04-17T07:01:58.488Z,73280.00
2018-04-17T07:02:58.690Z,74944.00
2018-04-17T07:03:58.883Z,79776.00
2018-04-17T07:04:59.093Z,82400.00
2018-04-17T07:05:59.278Z,76928.00
2018-04-17T07:06:59.480Z,60672.00
2018-04-17T07:07:59.673Z,78464.00
2018-04-17T07:08:59.874Z,83808.00
2018-04-17T07:10:00.070Z,82592.00
2018-04-17T07:11:00.269Z,86016.00
2018-04-17T07:12:00.467Z,87744.00
2018-04-17T07:13:00.666Z,87520.00
2018-04-17T07:14:00.859Z,86784.00
2018-04-17T07:15:01.066Z,89184.00
2018-04-17T07:16:01.268Z,89760.00
2018-04-17T07:17:01.531Z,89472.00
2018-04-17T07:18:01.662Z,90496.00
2018-04-17T07:19:01.882Z,91616.00
2018-04-17T07:20:02.064Z,90144.00
2018-04-17T07:21:02.262Z,86560.00
2018-04-17T07:22:02.461Z,86368.00
2018-04-17T07:23:02.665Z,90656.00
2018-04-17T07:24:02.862Z,90784.00
2018-04-17T07:25:03.061Z,91616.00
2018-04-17T07:26:03.263Z,94464.00
2018-04-17T07:27:03.467Z,94656.00
2018-04-17T07:28:03.668Z,92448.00
2018-04-17T07:29:03.867Z,94080.00
2018-04-17T07:30:04.070Z,91424.00
2018-04-17T07:31:04.277Z,89248.00
2018-04-17T07:32:04.470Z,92544.00
2018-04-17T07:33:04.673Z,92096.00
2018-04-17T07:34:04.875Z,92000.00
2018-04-17T07:35:05.076Z,94464.00
2018-04-17T07:36:05.280Z,93248.00
2018-04-17T07:37:05.479Z,92992.00
2018-04-17T07:38:05.679Z,96832.00
2018-04-17T07:39:05.880Z,97120.00
2018-04-17T07:40:06.084Z,98496.00
2018-04-17T07:41:06.284Z,101248.00
2018-04-17T07:42:06.485Z,104608.00
2018-04-17T07:43:06.692Z,104288.00
2018-04-17T07:44:06.889Z,101248.00
2018-04-17T07:45:07.090Z,101184.00
2018-04-17T07:46:07.291Z,102432.00
2018-04-17T07:47:07.493Z,99808.00
2018-04-17T07:48:07.694Z,100576.00
2018-04-17T07:49:07.896Z,104256.00
2018-04-17T07:50:08.095Z,107200.00
2018-04-17T07:51:08.295Z,106784.00
2018-04-17T07:52:08.497Z,105376.00
2018-04-17T07:53:08.698Z,105792.00
2018-04-17T07:54:08.898Z,104256.00
2018-04-17T07:55:09.100Z,100448.00
2018-04-17T07:56:09.302Z,100960.00
2018-04-17T07:57:09.504Z,102464.00
2018-04-17T07:58:09.704Z,102944.00
2018-04-17T07:59:09.908Z,102784.00
2018-04-17T08:00:10.105Z,100384.00
2018-04-17T08:01:10.306Z,97024.00
2018-04-17T08:02:10.504Z,98400.00
2018-04-17T08:03:10.708Z,97760.00
2018-04-17T08:04:10.905Z,98112.00
2018-04-17T08:05:11.109Z,99328.00
2018-04-17T08:06:11.308Z,101792.00
2018-04-17T08:07:11.512Z,99488.00
2018-04-17T08:08:11.710Z,99232.00
2018-04-17T08:09:11.910Z,101920.00
2018-04-17T08:10:12.111Z,99200.00
2018-04-17T08:11:12.311Z,99776.00
2018-04-17T08:12:12.512Z,100736.00
2018-04-17T08:13:12.714Z,99808.00
2018-04-17T08:14:12.917Z,100096.00
2018-04-17T08:15:13.123Z,98688.00
2018-04-17T08:16:13.320Z,98752.00
2018-04-17T08:17:13.519Z,102144.00
2018-04-17T08:18:13.721Z,97120.00
2018-04-17T08:19:13.923Z,97216.00
2018-04-17T08:20:14.122Z,98208.00
2018-04-17T08:21:14.329Z,96768.00
2018-04-17T08:22:14.526Z,97120.00
2018-04-17T08:23:14.728Z,96320.00
2018-04-17T08:24:14.930Z,94496.00
2018-04-17T08:25:15.132Z,97728.00
2018-04-17T08:26:15.335Z,99328.00
2018-04-17T08:27:15.533Z,101504.00
2018-04-17T08:28:15.734Z,97824.00
2018-04-17T08:29:15.933Z,97568.00
2018-04-17T08:30:16.138Z,100672.00
2018-04-17T08:31:16.336Z,102848.00
2018-04-17T08:32:16.538Z,100384.00
2018-04-17T08:33:16.742Z,101088.00
2018-04-17T08:34:16.942Z,100000.00
2018-04-17T08:35:17.143Z,100992.00
2018-04-17T08:36:17.345Z,100608.00
2018-04-17T08:37:17.546Z,100480.00
2018-04-17T08:38:17.750Z,102144.00
2018-04-17T08:39:17.951Z,102656.00
2018-04-17T08:40:18.156Z,101152.00
2018-04-17T08:41:18.354Z,101312.00
2018-04-17T08:42:18.556Z,102048.00
2018-04-17T08:43:18.762Z,99168.00
2018-04-17T08:44:18.959Z,97312.00
2018-04-17T08:45:19.163Z,100192.00
2018-04-17T08:46:19.366Z,102528.00
2018-04-17T08:47:19.567Z,99328.00
2018-04-17T08:48:19.771Z,96704.00
2018-04-17T08:49:19.982Z,106272.00
2018-04-17T08:50:20.175Z,96320.00
2018-04-17T08:51:20.377Z,92096.00
2018-04-17T08:52:20.581Z,107840.00
2018-04-17T08:53:20.781Z,88704.00
2018-04-17T08:54:20.982Z,77952.00
2018-04-17T08:55:21.186Z,100128.00
2018-04-17T08:56:21.389Z,95328.00
2018-04-17T08:57:21.593Z,89056.00
2018-04-17T08:58:21.795Z,101216.00
2018-04-17T08:59:22.005Z,104448.00
2018-04-17T09:00:22.198Z,100640.00
2018-04-17T09:01:22.407Z,103264.00
2018-04-17T09:02:22.603Z,100192.00
2018-04-17T09:03:22.804Z,94112.00
2018-04-17T09:04:23.008Z,86592.00
2018-04-17T09:05:23.208Z,73856.00
2018-04-17T09:06:23.411Z,64896.00
2018-04-17T09:07:23.616Z,55360.00
2018-04-17T09:08:23.814Z,47936.00
2018-04-17T09:09:24.018Z,47200.00
2018-04-17T09:10:24.220Z,48768.00
2018-04-17T09:11:24.423Z,53600.00
2018-04-17T09:12:24.623Z,62304.00
2018-04-17T09:13:24.826Z,72224.00
2018-04-17T09:14:25.029Z,82240.00
2018-04-17T09:15:25.231Z,90016.00
2018-04-17T09:16:25.435Z,93472.00
2018-04-17T09:17:25.636Z,95264.00
2018-04-17T09:18:25.844Z,93536.00
2018-04-17T09:19:26.039Z,89984.00
2018-04-17T09:20:26.239Z,88768.00
2018-04-17T09:21:26.441Z,89280.00
2018-04-17T09:22:26.643Z,89216.00
2018-04-17T09:23:26.844Z,88736.00
2018-04-17T09:24:27.047Z,86176.00
2018-04-17T09:25:27.253Z,84448.00
2018-04-17T09:26:27.451Z,79520.00
2018-04-17T09:27:27.653Z,79776.00
2018-04-17T09:28:27.853Z,82176.00
2018-04-17T09:29:28.052Z,82304.00
2018-04-17T09:30:28.253Z,83584.00
2018-04-17T09:31:28.455Z,84832.00
2018-04-17T09:32:28.657Z,84512.00
2018-04-17T09:33:28.858Z,82944.00
2018-04-17T09:34:29.075Z,82624.00
2018-04-17T09:35:29.261Z,80192.00
2018-04-17T09:36:29.461Z,78816.00
2018-04-17T09:37:29.662Z,76896.00
2018-04-17T09:38:29.863Z,75456.00
2018-04-17T09:39:30.071Z,75808.00
2018-04-17T09:40:30.262Z,76256.00
2018-04-17T09:41:30.462Z,74944.00
2018-04-17T09:42:30.699Z,75264.00
2018-04-17T09:43:30.865Z,75392.00
2018-04-17T09:44:31.066Z,73632.00
2018-04-17T09:45:31.265Z,70880.00
2018-04-17T09:46:31.476Z,71616.00
2018-04-17T09:47:31.664Z,71360.00
2018-04-17T09:48:31.864Z,69632.00
2018-04-17T09:49:32.065Z,67264.00
2018-04-17T09:50:32.267Z,67296.00
2018-04-17T09:51:32.469Z,52192.00
2018-04-17T09:52:32.666Z,33024.00
2018-04-17T09:53:32.868Z,29664.00
2018-04-17T09:54:33.067Z,28960.00
2018-04-17T09:55:33.268Z,28512.00
2018-04-17T09:56:33.467Z,28064.00
2018-04-17T09:57:33.712Z,27648.00
2018-04-17T09:58:33.868Z,27072.00
2018-04-17T09:59:34.068Z,25952.00
2018-04-17T10:00:34.268Z,26784.00
2018-04-17T10:01:34.468Z,25760.00
2018-04-17T10:02:34.668Z,25664.00
2018-04-17T10:03:34.874Z,26304.00
2018-04-17T10:04:35.075Z,26720.00
2018-04-17T10:05:35.269Z,27072.00
2018-04-17T10:06:35.469Z,26784.00
2018-04-17T10:07:35.668Z,26784.00
2018-04-17T10:08:35.869Z,23872.00
2018-04-17T10:09:36.067Z,26240.00
2018-04-17T10:10:36.266Z,24416.00
2018-04-17T10:11:36.468Z,26976.00
2018-04-17T10:12:36.670Z,26752.00
2018-04-17T10:13:36.864Z,21536.00
2018-04-17T10:14:37.062Z,21280.00
2018-04-17T10:15:37.262Z,23008.00
2018-04-17T10:16:37.460Z,21888.00
2018-04-17T10:17:37.660Z,21888.00
2018-04-17T10:18:37.859Z,23008.00
2018-04-17T10:19:38.058Z,33856.00
2018-04-17T10:20:38.255Z,32352.00
2018-04-17T10:21:38.454Z,27840.00
2018-04-17T10:22:38.661Z,23392.00
2018-04-17T10:23:38.850Z,21312.00
2018-04-17T10:24:39.055Z,20608.00
2018-04-17T10:25:39.246Z,20000.00
2018-04-17T10:26:39.446Z,20064.00
2018-04-17T10:27:39.642Z,26528.00
2018-04-17T10:28:39.838Z,22400.00
2018-04-17T10:29:40.040Z,19840.00
2018-04-17T10:30:40.233Z,20128.00
2018-04-17T10:31:40.431Z,19520.00
2018-04-17T10:32:40.628Z,18848.00
2018-04-17T10:33:40.824Z,18432.00
2018-04-17T10:34:41.021Z,18720.00
2018-04-17T10:35:41.219Z,20768.00
2018-04-17T10:36:41.417Z,19392.00
2018-04-17T10:37:41.612Z,18432.00
2018-04-17T10:38:41.817Z,20736.00
2018-04-17T10:39:42.009Z,22048.00
2018-04-17T10:40:42.203Z,22816.00
2018-04-17T10:41:42.396Z,22656.00
2018-04-17T10:42:42.594Z,21888.00
2018-04-17T10:43:42.790Z,26016.00
2018-04-17T10:44:42.992Z,38496.00
2018-04-17T10:45:43.182Z,41440.00
2018-04-17T10:46:43.380Z,38208.00
2018-04-17T10:47:43.576Z,32544.00
2018-04-17T10:48:43.773Z,17672.00
2018-04-17T10:49:43.971Z,16008.00
2018-04-17T10:50:44.168Z,34976.00
2018-04-17T10:51:44.364Z,36832.00
2018-04-17T10:52:44.563Z,38048.00
2018-04-17T10:53:44.779Z,39936.00
2018-04-17T10:54:44.953Z,42400.00
2018-04-17T10:55:45.152Z,41248.00
2018-04-17T10:56:45.346Z,39968.00
2018-04-17T10:57:45.543Z,40928.00
2018-04-17T10:58:45.741Z,41728.00
2018-04-17T10:59:45.976Z,42208.00
2018-04-17T11:00:46.134Z,41504.00
2018-04-17T11:01:46.330Z,39104.00
2018-04-17T11:02:46.526Z,33600.00
2018-04-17T11:03:46.723Z,17736.00
2018-04-17T11:04:46.923Z,36640.00
2018-04-17T11:05:47.117Z,41472.00
2018-04-17T11:06:47.313Z,39264.00
2018-04-17T11:07:47.511Z,14328.00
2018-04-17T11:08:47.707Z,13196.00
2018-04-17T11:09:47.904Z,13360.00
2018-04-17T11:10:48.097Z,14880.00
2018-04-17T11:11:48.299Z,14056.00
2018-04-17T11:12:48.494Z,14200.00
2018-04-17T11:13:48.689Z,13924.00
2018-04-17T11:14:48.885Z,14748.00
2018-04-17T11:15:49.079Z,15160.00
2018-04-17T11:16:49.277Z,15156.00
2018-04-17T11:17:49.473Z,14116.00
2018-04-17T11:18:49.670Z,13696.00
2018-04-17T11:19:49.865Z,14356.00
2018-04-17T11:20:50.060Z,14596.00
2018-04-17T11:21:50.255Z,13912.00
2018-04-17T11:22:50.451Z,14720.00
2018-04-17T11:23:50.646Z,13420.00
2018-04-17T11:24:50.839Z,13096.00
2018-04-17T11:25:51.035Z,13608.00
2018-04-17T11:26:51.232Z,14008.00
2018-04-17T11:27:51.468Z,14200.00
2018-04-17T11:28:51.623Z,14668.00
2018-04-17T11:29:51.817Z,14672.00
2018-04-17T11:30:52.010Z,14420.00
2018-04-17T11:31:52.203Z,13852.00
2018-04-17T11:32:52.399Z,13332.00
2018-04-17T11:33:52.596Z,12780.00
2018-04-17T11:34:52.791Z,12772.00
2018-04-17T11:35:52.985Z,12956.00
2018-04-17T11:36:53.177Z,13060.00
2018-04-17T11:37:53.374Z,13292.00
2018-04-17T11:38:53.567Z,13676.00
2018-04-17T11:39:53.761Z,15028.00
2018-04-17T11:40:53.955Z,15616.00
2018-04-17T11:41:54.149Z,15664.00
2018-04-17T11:42:54.398Z,15468.00
2018-04-17T11:43:54.535Z,16544.00
2018-04-17T11:44:54.731Z,16624.00
2018-04-17T11:45:54.925Z,15940.00
2018-04-17T11:46:55.124Z,15552.00
2018-04-17T11:47:55.313Z,15304.00
2018-04-17T11:48:55.507Z,14884.00
2018-04-17T11:49:55.699Z,15040.00
2018-04-17T11:50:55.895Z,16520.00
2018-04-17T11:51:56.089Z,16024.00
2018-04-17T11:52:56.284Z,16044.00
2018-04-17T11:53:56.475Z,15092.00
2018-04-17T11:54:56.669Z,14512.00
2018-04-17T11:55:56.861Z,14116.00
2018-04-17T11:56:57.057Z,13648.00
2018-04-17T11:57:57.251Z,13380.00
2018-04-17T11:58:57.442Z,13368.00
2018-04-17T11:59:57.635Z,12880.00
2018-04-17T12:00:57.829Z,13744.00
2018-04-17T12:01:58.024Z,13880.00
2018-04-17T12:02:58.217Z,15108.00
2018-04-17T12:03:58.410Z,15132.00
2018-04-17T12:04:58.602Z,14160.00
2018-04-17T12:05:58.794Z,14008.00
2018-04-17T12:06:58.987Z,13804.00
2018-04-17T12:07:59.181Z,13728.00
2018-04-17T12:08:59.375Z,14180.00
2018-04-17T12:09:59.576Z,14224.00
2018-04-17T12:10:59.758Z,15112.00
2018-04-17T12:11:59.951Z,14756.00
2018-04-17T12:13:00.146Z,14164.00
2018-04-17T12:14:00.338Z,13448.00
2018-04-17T12:15:00.529Z,13296.00
2018-04-17T12:16:00.723Z,14480.00
2018-04-17T12:17:00.937Z,14460.00